Okolona, Kentucky
Current Conditions -  °F | °C
As of 6:56 PM on Friday 24 Oct 2014 (Local Time) from KSDF Reporting Station
Scattered Clouds Scattered Clouds  
Wind Chill: 63°   Ceiling: Unl
Heat Index: 63°   Visibility: 10mi
Dew Point: 45°   Wind: 0mph
Humidity: 52%   Direction: NA
Pressure: 30.05"   Gusts: NA
Location:  38.14°N, 85.69°W
Report Text: KSDF 242256Z 00000KT 10SM FEW040 SCT150 SCT250 17/07 A3005 RMK AO2 SLP174 T01720072
Loading
Personal Weather Stations






























Interactive Weather Map
Tropical Storm Tracking
New forecast layout! Learn more

10-Day Weather Forecast

Advertisements
Track Severe Weather on mobile